createdAt,value
2017-12-12T00:01:03.660Z,7.80
2017-12-12T00:03:31.905Z,7.60
2017-12-12T00:05:59.368Z,7.60
2017-12-12T00:08:26.843Z,7.60
2017-12-12T00:10:54.329Z,7.50
2017-12-12T00:13:22.573Z,7.40
2017-12-12T00:15:50.048Z,7.40
2017-12-12T00:18:17.527Z,7.40
2017-12-12T00:20:45.020Z,7.40
2017-12-12T00:23:12.481Z,7.40
2017-12-12T00:25:39.956Z,7.40
2017-12-12T00:28:07.460Z,7.40
2017-12-12T00:30:34.943Z,7.40
2017-12-12T00:33:02.411Z,7.30
2017-12-12T00:35:30.674Z,7.30
2017-12-12T00:37:58.169Z,7.30
2017-12-12T00:40:26.417Z,7.20
2017-12-12T00:42:53.911Z,7.20
2017-12-12T00:45:22.145Z,7.20
2017-12-12T00:47:49.632Z,7.20
2017-12-12T00:50:17.117Z,7.20
2017-12-12T00:52:45.363Z,7.10
2017-12-12T00:55:12.833Z,7.00
2017-12-12T00:57:40.338Z,7.10
2017-12-12T01:00:07.815Z,7.00
2017-12-12T01:02:35.300Z,7.00
2017-12-12T01:05:02.771Z,7.00
2017-12-12T01:07:30.265Z,7.00
2017-12-12T01:09:58.509Z,6.90
2017-12-12T01:12:26.005Z,6.90
2017-12-12T01:14:53.469Z,6.90
2017-12-12T01:17:21.716Z,6.80
2017-12-12T01:19:49.189Z,6.80
2017-12-12T01:22:16.669Z,6.70
2017-12-12T01:24:44.910Z,6.60
2017-12-12T01:27:12.380Z,6.60
2017-12-12T01:29:39.861Z,6.60
2017-12-12T01:32:07.366Z,6.50
2017-12-12T01:34:34.831Z,6.50
2017-12-12T01:37:02.297Z,6.40
2017-12-12T01:39:29.775Z,6.30
2017-12-12T01:41:57.281Z,6.30
2017-12-12T01:44:24.722Z,6.30
2017-12-12T01:46:52.196Z,6.20
2017-12-12T01:49:19.677Z,6.10
2017-12-12T01:51:47.912Z,6.00
2017-12-12T01:54:15.401Z,6.00
2017-12-12T01:56:42.868Z,6.00
2017-12-12T01:59:10.350Z,6.00
2017-12-12T02:01:38.584Z,5.90
2017-12-12T02:04:06.054Z,5.90
2017-12-12T02:06:33.521Z,5.90
2017-12-12T02:09:01.009Z,5.80
2017-12-12T02:11:28.483Z,5.80
2017-12-12T02:13:56.721Z,5.90
2017-12-12T02:16:24.200Z,5.80
2017-12-12T02:18:51.690Z,5.80
2017-12-12T02:21:19.938Z,5.80
2017-12-12T02:23:47.435Z,5.70
2017-12-12T02:26:15.666Z,5.70
2017-12-12T02:28:43.165Z,5.70
2017-12-12T02:31:11.416Z,5.60
2017-12-12T02:33:38.914Z,5.60
2017-12-12T02:36:07.150Z,5.60
2017-12-12T02:38:34.619Z,5.50
2017-12-12T02:41:02.107Z,5.50
2017-12-12T02:43:29.582Z,5.50
2017-12-12T02:45:57.821Z,5.50
2017-12-12T02:48:25.296Z,5.40
2017-12-12T02:50:52.785Z,5.50
2017-12-12T02:53:20.254Z,5.50
2017-12-12T02:55:48.499Z,5.40
2017-12-12T02:58:15.980Z,5.40
2017-12-12T03:00:44.225Z,5.30
2017-12-12T03:03:11.713Z,5.20
2017-12-12T03:05:39.966Z,5.30
2017-12-12T03:08:07.458Z,5.30
2017-12-12T03:10:35.711Z,5.30
2017-12-12T03:13:03.181Z,5.30
2017-12-12T03:15:30.734Z,5.30
2017-12-12T03:17:58.218Z,5.30
2017-12-12T03:20:25.689Z,5.30
2017-12-12T03:22:53.956Z,5.30
2017-12-12T03:25:21.442Z,5.20
2017-12-12T03:27:49.700Z,5.20
2017-12-12T03:30:17.168Z,5.20
2017-12-12T03:32:44.660Z,5.20
2017-12-12T03:35:12.141Z,5.20
2017-12-12T03:37:39.629Z,5.20
2017-12-12T03:40:07.107Z,5.10
2017-12-12T03:42:34.601Z,5.20
2017-12-12T03:45:02.843Z,5.10
2017-12-12T03:47:30.324Z,5.00
2017-12-12T03:49:57.811Z,5.00
2017-12-12T03:52:25.293Z,5.00
2017-12-12T03:54:52.772Z,5.00
2017-12-12T03:57:21.017Z,4.90
2017-12-12T03:59:49.261Z,5.00
2017-12-12T04:02:16.740Z,4.90
2017-12-12T04:04:44.206Z,5.00
2017-12-12T04:07:12.449Z,4.90
2017-12-12T04:09:39.932Z,4.90
2017-12-12T04:12:07.412Z,4.80
2017-12-12T04:14:35.649Z,4.80
2017-12-12T04:17:03.136Z,4.80
2017-12-12T04:19:30.600Z,4.70
2017-12-12T04:21:58.082Z,4.70
2017-12-12T04:24:26.318Z,4.70
2017-12-12T04:26:53.810Z,4.70
2017-12-12T04:29:21.274Z,4.70
2017-12-12T04:31:48.756Z,4.70
2017-12-12T04:34:17.014Z,4.70
2017-12-12T04:36:44.482Z,4.70
2017-12-12T04:39:11.975Z,4.70
2017-12-12T04:41:39.442Z,4.70
2017-12-12T04:44:06.917Z,4.70
2017-12-12T04:46:34.382Z,4.70
2017-12-12T04:49:01.873Z,4.70
2017-12-12T04:51:29.340Z,4.70
2017-12-12T04:53:56.834Z,4.70
2017-12-12T04:56:25.072Z,4.70
2017-12-12T04:58:52.565Z,4.70
2017-12-12T05:01:20.037Z,4.70
2017-12-12T05:03:48.278Z,4.70
2017-12-12T05:06:15.760Z,4.70
2017-12-12T05:08:43.238Z,4.70
2017-12-12T05:11:10.723Z,4.60
2017-12-12T05:13:38.209Z,4.60
2017-12-12T05:16:05.690Z,4.70
2017-12-12T05:18:33.170Z,4.70
2017-12-12T05:21:00.659Z,4.70
2017-12-12T05:23:28.905Z,4.70
2017-12-12T05:25:56.384Z,4.70
2017-12-12T05:28:23.869Z,4.70
2017-12-12T05:30:52.115Z,4.80
2017-12-12T05:33:19.596Z,4.80
2017-12-12T05:35:47.070Z,4.80
2017-12-12T05:38:15.334Z,4.80
2017-12-12T05:40:42.811Z,4.80
2017-12-12T05:43:10.286Z,4.80
2017-12-12T05:45:38.529Z,4.80
2017-12-12T05:48:06.008Z,4.80
2017-12-12T05:50:33.502Z,4.80
2017-12-12T05:53:00.982Z,4.90
2017-12-12T05:55:28.463Z,4.90
2017-12-12T05:57:55.929Z,4.90
2017-12-12T06:00:23.421Z,4.90
2017-12-12T06:02:50.890Z,4.90
2017-12-12T06:05:19.142Z,4.80
2017-12-12T06:07:46.606Z,4.80
2017-12-12T06:10:14.102Z,4.80
2017-12-12T06:12:42.353Z,4.80
2017-12-12T06:15:09.835Z,4.80
2017-12-12T06:17:38.085Z,4.90
2017-12-12T06:20:05.577Z,4.80
2017-12-12T06:22:33.049Z,4.80
2017-12-12T06:25:01.291Z,4.80
2017-12-12T06:27:28.758Z,4.80
2017-12-12T06:29:56.241Z,4.80
2017-12-12T06:32:23.719Z,4.80
2017-12-12T06:34:51.970Z,4.90
2017-12-12T06:37:19.444Z,4.80
2017-12-12T06:39:46.929Z,4.90
2017-12-12T06:42:15.169Z,4.90
2017-12-12T06:44:42.673Z,4.90
2017-12-12T06:47:10.902Z,4.90
2017-12-12T06:49:38.393Z,4.90
2017-12-12T06:52:05.884Z,4.90
2017-12-12T06:54:34.486Z,4.80
2017-12-12T06:57:01.980Z,4.90
2017-12-12T06:59:30.362Z,4.90
2017-12-12T07:01:57.850Z,4.80
2017-12-12T07:04:25.314Z,4.80
2017-12-12T07:06:52.816Z,4.80
2017-12-12T07:09:21.082Z,4.70
2017-12-12T07:11:49.320Z,4.70
2017-12-12T07:14:16.794Z,4.70
2017-12-12T07:16:44.289Z,4.60
2017-12-12T07:19:12.532Z,4.70
2017-12-12T07:21:40.040Z,4.60
2017-12-12T07:24:08.270Z,4.70
2017-12-12T07:26:35.761Z,4.70
2017-12-12T07:29:03.998Z,4.70
2017-12-12T07:31:31.489Z,4.70
2017-12-12T07:33:58.960Z,4.70
2017-12-12T07:36:26.441Z,4.70
2017-12-12T07:38:54.709Z,4.80
2017-12-12T07:41:22.971Z,4.80
2017-12-12T07:43:50.445Z,4.80
2017-12-12T07:46:17.947Z,4.80
2017-12-12T07:48:45.417Z,4.80
2017-12-12T07:51:12.901Z,4.80
2017-12-12T07:53:40.378Z,4.80
2017-12-12T07:56:07.853Z,4.80
2017-12-12T07:58:35.325Z,4.80
2017-12-12T08:01:02.836Z,4.80
2017-12-12T08:03:30.316Z,4.80
2017-12-12T08:05:57.791Z,4.80
2017-12-12T08:08:25.277Z,4.80
2017-12-12T08:10:52.749Z,4.80
2017-12-12T08:13:21.002Z,4.80
2017-12-12T08:15:48.470Z,4.80
2017-12-12T08:18:15.965Z,4.80
2017-12-12T08:20:44.213Z,4.80
2017-12-12T08:23:11.692Z,4.80
2017-12-12T08:25:39.167Z,4.90
2017-12-12T08:28:07.407Z,4.90
2017-12-12T08:30:34.884Z,4.90
2017-12-12T08:33:02.384Z,4.90
2017-12-12T08:35:29.886Z,4.90
2017-12-12T08:37:57.377Z,4.90
2017-12-12T08:40:24.851Z,4.90
2017-12-12T08:42:52.343Z,4.90
2017-12-12T08:45:19.817Z,5.00
2017-12-12T08:47:47.318Z,5.00
2017-12-12T08:50:14.802Z,5.00
2017-12-12T08:52:42.290Z,5.00
2017-12-12T08:55:09.762Z,5.00
2017-12-12T08:57:37.243Z,5.00
2017-12-12T09:00:04.736Z,5.00
2017-12-12T09:02:32.212Z,5.10
2017-12-12T09:04:59.695Z,5.10
2017-12-12T09:07:27.960Z,5.10
2017-12-12T09:09:55.441Z,5.10
2017-12-12T09:12:23.693Z,5.10
2017-12-12T09:14:51.175Z,5.10
2017-12-12T09:17:19.412Z,5.20
2017-12-12T09:19:46.894Z,5.20
2017-12-12T09:22:14.366Z,5.10
2017-12-12T09:24:41.878Z,5.20
2017-12-12T09:27:10.123Z,5.20
2017-12-12T09:29:38.388Z,5.20
2017-12-12T09:32:05.861Z,5.20
2017-12-12T09:34:33.351Z,5.20
2017-12-12T09:37:00.836Z,5.20
2017-12-12T09:39:28.321Z,5.20
2017-12-12T09:41:55.792Z,5.20
2017-12-12T09:44:23.270Z,5.20
2017-12-12T09:46:50.744Z,5.20
2017-12-12T09:49:19.002Z,5.20
2017-12-12T09:51:46.474Z,5.20
2017-12-12T09:54:13.956Z,5.30
2017-12-12T09:56:42.211Z,5.30
2017-12-12T09:59:09.698Z,5.20
2017-12-12T10:01:37.950Z,5.30
2017-12-12T10:04:05.434Z,5.30
2017-12-12T10:06:33.671Z,5.30
2017-12-12T10:09:01.181Z,5.30
2017-12-12T10:11:29.415Z,5.30
2017-12-12T10:13:56.909Z,5.30
2017-12-12T10:16:24.383Z,5.30
2017-12-12T10:18:52.629Z,5.40
2017-12-12T10:21:20.101Z,5.40
2017-12-12T10:23:47.588Z,5.40
2017-12-12T10:26:15.828Z,5.40
2017-12-12T10:28:43.321Z,5.40
2017-12-12T10:31:10.790Z,5.40
2017-12-12T10:33:39.054Z,5.40
2017-12-12T10:36:06.534Z,5.40
2017-12-12T10:38:34.016Z,5.50
2017-12-12T10:41:02.262Z,5.50
2017-12-12T10:43:29.734Z,5.40
2017-12-12T10:45:57.235Z,5.50
2017-12-12T10:48:24.709Z,5.50
2017-12-12T10:50:52.191Z,5.50
2017-12-12T10:53:19.681Z,5.50
2017-12-12T10:55:47.178Z,5.50
2017-12-12T10:58:14.684Z,5.50
2017-12-12T11:00:42.166Z,5.50
2017-12-12T11:03:09.663Z,5.50
2017-12-12T11:05:37.179Z,5.50
2017-12-12T11:08:04.666Z,5.40
2017-12-12T11:10:32.149Z,5.50
2017-12-12T11:13:00.384Z,5.50
2017-12-12T11:15:27.921Z,5.50
2017-12-12T11:17:55.356Z,5.50
2017-12-12T11:20:23.605Z,5.50
2017-12-12T11:22:51.100Z,5.50
2017-12-12T11:25:19.371Z,5.60
2017-12-12T11:27:46.830Z,5.50
2017-12-12T11:30:15.080Z,5.50
2017-12-12T11:32:42.584Z,5.50
2017-12-12T11:35:10.832Z,5.50
2017-12-12T11:37:38.377Z,5.50
2017-12-12T11:40:05.813Z,5.50
2017-12-12T11:42:33.306Z,5.50
2017-12-12T11:45:00.783Z,5.50
2017-12-12T11:47:28.286Z,5.50
2017-12-12T11:49:56.524Z,5.50
2017-12-12T11:52:24.016Z,5.50
2017-12-12T11:54:52.255Z,5.50
2017-12-12T11:57:19.735Z,5.50
2017-12-12T11:59:47.220Z,5.60
2017-12-12T12:02:15.463Z,5.60
2017-12-12T12:04:42.950Z,5.60
2017-12-12T12:07:10.433Z,5.60
2017-12-12T12:09:38.672Z,5.60
2017-12-12T12:12:06.151Z,5.50
2017-12-12T12:14:33.622Z,5.60
2017-12-12T12:17:01.099Z,5.60
2017-12-12T12:19:29.341Z,5.50
2017-12-12T12:21:56.830Z,5.50
2017-12-12T12:24:24.323Z,5.50
2017-12-12T12:26:51.792Z,5.50
2017-12-12T12:29:19.286Z,5.40
2017-12-12T12:31:46.758Z,5.50
2017-12-12T12:34:14.247Z,5.40
2017-12-12T12:36:41.731Z,5.40
2017-12-12T12:39:09.213Z,5.40
2017-12-12T12:41:36.688Z,5.30
2017-12-12T12:44:04.168Z,5.30
2017-12-12T12:46:31.648Z,5.30
2017-12-12T12:48:59.133Z,5.30
2017-12-12T12:51:27.363Z,5.30
2017-12-12T12:53:54.858Z,5.30
2017-12-12T12:56:22.317Z,5.30
2017-12-12T12:58:49.805Z,5.30
2017-12-12T13:01:18.041Z,5.20
2017-12-12T13:03:45.518Z,5.20
2017-12-12T13:06:12.990Z,5.20
2017-12-12T13:08:40.480Z,5.20
2017-12-12T13:11:08.707Z,5.30
2017-12-12T13:13:36.180Z,5.30
2017-12-12T13:16:03.655Z,5.30
2017-12-12T13:18:31.135Z,5.20
2017-12-12T13:20:59.402Z,5.30
2017-12-12T13:23:26.890Z,5.30
2017-12-12T13:25:54.383Z,5.30
2017-12-12T13:28:21.853Z,5.30
2017-12-12T13:30:49.356Z,5.40
2017-12-12T13:33:16.834Z,5.40
2017-12-12T13:35:45.086Z,5.60
2017-12-12T13:38:12.553Z,5.60
2017-12-12T13:40:40.038Z,5.60
2017-12-12T13:43:08.291Z,5.60
2017-12-12T13:45:35.779Z,5.60
2017-12-12T13:48:04.015Z,5.60
2017-12-12T13:50:31.509Z,5.60
2017-12-12T13:52:58.985Z,5.70
2017-12-12T13:55:27.224Z,5.70
2017-12-12T13:57:54.688Z,5.70
2017-12-12T14:00:22.212Z,5.70
2017-12-12T14:02:49.699Z,5.70
2017-12-12T14:05:17.170Z,5.70
2017-12-12T14:07:44.653Z,5.70
2017-12-12T14:10:12.122Z,5.70
2017-12-12T14:12:39.605Z,5.70
2017-12-12T14:15:07.840Z,5.70
2017-12-12T14:17:35.321Z,5.70
2017-12-12T14:20:02.807Z,5.70
2017-12-12T14:22:30.281Z,5.70
2017-12-12T14:24:57.765Z,5.70
2017-12-12T14:27:25.251Z,5.70
2017-12-12T14:29:52.726Z,5.70
2017-12-12T14:32:20.205Z,5.70
2017-12-12T14:34:47.705Z,5.60
2017-12-12T14:37:15.190Z,5.70
2017-12-12T14:39:42.665Z,5.60
2017-12-12T14:42:10.158Z,5.60
2017-12-12T14:44:37.637Z,5.60
2017-12-12T14:47:05.882Z,5.60
2017-12-12T14:49:33.360Z,5.50
2017-12-12T14:52:00.854Z,5.50
2017-12-12T14:54:29.089Z,5.50
2017-12-12T14:56:56.579Z,5.50
2017-12-12T14:59:24.821Z,5.50
2017-12-12T15:04:26.289Z,5.50
2017-12-12T15:06:53.779Z,5.50
2017-12-12T15:09:21.264Z,5.50
2017-12-12T15:11:49.492Z,5.50
2017-12-12T15:14:16.990Z,5.40
2017-12-12T15:16:44.453Z,5.40
2017-12-12T15:19:11.958Z,5.40
2017-12-12T15:21:39.434Z,5.40
2017-12-12T15:24:06.937Z,5.40
2017-12-12T15:26:35.203Z,5.40
2017-12-12T15:29:02.696Z,5.40
2017-12-12T15:31:30.173Z,5.40
2017-12-12T15:33:58.421Z,5.30
2017-12-12T15:36:25.899Z,5.30
2017-12-12T15:38:53.407Z,5.30
2017-12-12T15:41:20.869Z,5.30
2017-12-12T15:43:48.349Z,5.30
2017-12-12T15:46:15.837Z,5.30
2017-12-12T15:48:43.322Z,5.20
2017-12-12T15:51:11.584Z,5.20
2017-12-12T15:53:39.060Z,5.20
2017-12-12T15:56:07.316Z,5.10
2017-12-12T15:58:34.802Z,5.10
2017-12-12T16:01:02.280Z,5.10
2017-12-12T16:03:30.531Z,5.10
2017-12-12T16:05:58.003Z,5.10
2017-12-12T16:08:25.493Z,5.10
2017-12-12T16:10:52.977Z,5.00
2017-12-12T16:13:20.481Z,5.00
2017-12-12T16:15:47.976Z,4.90
2017-12-12T16:18:16.226Z,4.80
2017-12-12T16:20:43.736Z,4.80
2017-12-12T16:23:11.208Z,4.90
2017-12-12T16:25:38.699Z,4.80
2017-12-12T16:28:06.194Z,4.80
2017-12-12T16:30:33.662Z,4.80
2017-12-12T16:33:01.917Z,4.80
2017-12-12T16:35:29.390Z,4.80
2017-12-12T16:37:56.873Z,4.70
2017-12-12T16:40:25.121Z,4.70
2017-12-12T16:42:52.606Z,4.70
2017-12-12T16:45:21.231Z,4.70
2017-12-12T16:47:48.716Z,4.70
2017-12-12T16:50:16.210Z,4.70
2017-12-12T16:52:43.731Z,4.60
2017-12-12T16:55:11.205Z,4.60
2017-12-12T16:57:38.674Z,4.60
2017-12-12T17:00:06.156Z,4.60
2017-12-12T17:02:33.640Z,4.50
2017-12-12T17:05:01.883Z,4.50
2017-12-12T17:07:29.365Z,4.50
2017-12-12T17:09:56.840Z,4.50
2017-12-12T17:12:24.316Z,4.50
2017-12-12T17:14:52.552Z,4.40
2017-12-12T17:17:20.396Z,4.40
2017-12-12T17:19:47.876Z,4.40
2017-12-12T17:22:15.376Z,4.40
2017-12-12T17:24:42.863Z,4.40
2017-12-12T17:27:10.335Z,4.40
2017-12-12T17:29:37.817Z,4.30
2017-12-12T17:32:06.060Z,4.30
2017-12-12T17:34:34.309Z,4.30
2017-12-12T17:37:01.839Z,4.30
2017-12-12T17:39:30.859Z,4.30
2017-12-12T17:41:58.340Z,4.30
2017-12-12T17:44:25.850Z,4.30
2017-12-12T17:46:53.323Z,4.30
2017-12-12T17:49:20.842Z,4.20
2017-12-12T17:51:49.101Z,4.30
2017-12-12T17:54:16.580Z,4.30
2017-12-12T17:56:44.086Z,4.30
2017-12-12T17:59:11.566Z,4.30
2017-12-12T18:01:39.045Z,4.30
2017-12-12T18:04:06.537Z,4.30
2017-12-12T18:06:34.034Z,4.30
2017-12-12T18:09:01.521Z,4.20
2017-12-12T18:11:29.018Z,4.30
2017-12-12T18:13:56.500Z,4.30
2017-12-12T18:16:24.739Z,4.20
2017-12-12T18:18:52.217Z,4.30
2017-12-12T18:21:19.726Z,4.20
2017-12-12T18:23:47.224Z,4.20
2017-12-12T18:26:14.696Z,4.30
2017-12-12T18:28:42.177Z,4.30
2017-12-12T18:31:09.648Z,4.30
2017-12-12T18:33:37.142Z,4.20
2017-12-12T18:36:04.618Z,4.20
2017-12-12T18:38:32.104Z,4.20
2017-12-12T18:40:59.574Z,4.20
2017-12-12T18:43:27.071Z,4.20
2017-12-12T18:45:55.324Z,4.10
2017-12-12T18:48:22.808Z,4.10
2017-12-12T18:50:51.039Z,4.10
2017-12-12T18:53:18.515Z,4.10
2017-12-12T18:55:45.986Z,4.10
2017-12-12T18:58:13.467Z,4.00
2017-12-12T19:00:40.944Z,4.00
2017-12-12T19:03:09.198Z,4.00
2017-12-12T19:05:36.670Z,4.00
2017-12-12T19:08:04.178Z,4.00
2017-12-12T19:10:31.648Z,4.00
2017-12-12T19:12:59.121Z,3.90
2017-12-12T19:15:26.611Z,4.00
2017-12-12T19:17:54.103Z,4.00
2017-12-12T19:20:22.346Z,3.90
2017-12-12T19:22:49.840Z,3.90
2017-12-12T19:25:18.070Z,4.00
2017-12-12T19:27:45.554Z,3.90
2017-12-12T19:30:13.046Z,3.90
2017-12-12T19:32:41.288Z,4.00
2017-12-12T19:35:08.765Z,3.90
2017-12-12T19:37:36.246Z,3.90
2017-12-12T19:40:03.744Z,3.90
2017-12-12T19:42:31.259Z,3.90
2017-12-12T19:44:58.743Z,3.90
2017-12-12T19:47:27.037Z,3.90
2017-12-12T19:49:55.347Z,3.90
2017-12-12T19:52:22.869Z,3.90
2017-12-12T19:54:51.112Z,3.90
2017-12-12T19:57:18.634Z,3.90
2017-12-12T19:59:46.130Z,3.90
2017-12-12T20:02:13.601Z,3.90
2017-12-12T20:04:41.128Z,3.90
2017-12-12T20:07:08.602Z,3.90
2017-12-12T20:09:36.095Z,3.90
2017-12-12T20:12:03.578Z,3.90
2017-12-12T20:14:31.053Z,3.90
2017-12-12T20:16:59.294Z,3.90
2017-12-12T20:19:26.846Z,3.90
2017-12-12T20:21:54.318Z,3.90
2017-12-12T20:24:21.803Z,3.90
2017-12-12T20:26:49.314Z,3.90
2017-12-12T20:29:16.787Z,3.90
2017-12-12T20:31:44.304Z,4.00
2017-12-12T20:34:11.852Z,3.90
2017-12-12T20:36:39.324Z,3.90
2017-12-12T20:39:06.828Z,3.90
2017-12-12T20:41:34.353Z,3.90
2017-12-12T20:44:01.861Z,4.00
2017-12-12T20:46:29.349Z,4.00
2017-12-12T20:48:56.845Z,4.00
2017-12-12T20:51:25.313Z,4.00
2017-12-12T20:53:52.887Z,4.00
2017-12-12T20:56:20.412Z,4.00
2017-12-12T20:58:47.943Z,4.00
2017-12-12T21:01:16.254Z,4.00
2017-12-12T21:03:43.795Z,4.00
2017-12-12T21:06:12.050Z,4.00
2017-12-12T21:08:39.534Z,4.00
2017-12-12T21:11:07.779Z,4.00
2017-12-12T21:13:35.252Z,4.00
2017-12-12T21:16:02.736Z,4.00
2017-12-12T21:18:30.980Z,4.00
2017-12-12T21:20:58.532Z,4.00
2017-12-12T21:23:26.051Z,4.00
2017-12-12T21:25:54.295Z,4.00
2017-12-12T21:28:21.768Z,4.00
2017-12-12T21:30:49.266Z,4.00
2017-12-12T21:33:16.745Z,4.00
2017-12-12T21:35:44.284Z,4.00
2017-12-12T21:38:12.529Z,4.00
2017-12-12T21:40:39.993Z,4.00
2017-12-12T21:43:07.521Z,4.00
2017-12-12T21:45:35.009Z,4.00
2017-12-12T21:48:02.551Z,3.90
2017-12-12T21:50:30.083Z,3.90
2017-12-12T21:52:57.554Z,3.90
2017-12-12T21:55:25.037Z,3.90
2017-12-12T21:57:52.514Z,3.90
2017-12-12T22:00:19.991Z,3.80
2017-12-12T22:02:47.536Z,3.80
2017-12-12T22:05:15.116Z,3.80
2017-12-12T22:07:42.643Z,3.80
2017-12-12T22:10:10.172Z,3.80
2017-12-12T22:12:37.679Z,3.80
2017-12-12T22:15:05.182Z,3.70
2017-12-12T22:17:32.686Z,3.80
2017-12-12T22:20:00.205Z,3.70
2017-12-12T22:22:27.691Z,3.70
2017-12-12T22:24:55.942Z,3.70
2017-12-12T22:27:23.435Z,3.70
2017-12-12T22:29:51.690Z,3.70
2017-12-12T22:32:19.191Z,3.60
2017-12-12T22:34:47.432Z,3.60
2017-12-12T22:37:14.954Z,3.60
2017-12-12T22:39:42.437Z,3.60
2017-12-12T22:42:09.925Z,3.60
2017-12-12T22:44:37.391Z,3.60
2017-12-12T22:47:04.883Z,3.60
2017-12-12T22:49:33.127Z,3.60
2017-12-12T22:52:00.648Z,3.60
2017-12-12T22:54:28.118Z,3.50
2017-12-12T22:56:55.607Z,3.50
2017-12-12T22:59:23.080Z,3.50
2017-12-12T23:01:50.556Z,3.50
2017-12-12T23:04:18.026Z,3.50
2017-12-12T23:06:45.510Z,3.40
2017-12-12T23:09:12.999Z,3.40
2017-12-12T23:11:40.483Z,3.40
2017-12-12T23:14:07.991Z,3.40
2017-12-12T23:16:35.470Z,3.40
2017-12-12T23:19:03.715Z,3.40
2017-12-12T23:21:31.190Z,3.30
2017-12-12T23:23:58.684Z,3.30
2017-12-12T23:26:26.962Z,3.30
2017-12-12T23:28:55.202Z,3.20
2017-12-12T23:31:22.677Z,3.20
2017-12-12T23:33:50.157Z,3.20
2017-12-12T23:36:17.642Z,3.20
2017-12-12T23:38:45.136Z,3.10
2017-12-12T23:41:12.604Z,3.10
2017-12-12T23:43:40.081Z,3.10
2017-12-12T23:46:07.557Z,3.10
2017-12-12T23:48:35.048Z,3.10
2017-12-12T23:51:02.528Z,3.10
2017-12-12T23:53:30.009Z,3.10
2017-12-12T23:55:57.488Z,3.10
2017-12-12T23:58:25.002Z,3.10
